ENST/SSJ METAR and TAF weather

Enter ICAO airport designator
Station Type Date Time Source
ENST METAR 2019/12/13 20:20 UTC NOAA

ENST 132020Z 16011KT 060V190 CAVOK 04/M06 Q0990 RMK WIND 300FT 13022G32KT


Station Type Date Time Source
ENST Decoded METAR 2019/12/13 20:20 UTC NOAA

Sandnessjoen / Stokka, Norway (ENST) 65-58N 012-28E 17M
Dec 13, 2019 - 03:20 PM EST / 2019.12.13 2020 UTC
Wind: from the SSE (160 degrees) at 13 MPH (11 KT) (direction variable):0
Visibility: greater than 7 mile(s):0
Temperature: 39 F (4 C)
Dew Point: 21 F (-6 C)
Relative Humidity: 48%
Pressure (altimeter): 29.23 in. Hg (0990 hPa)
ob: ENST 132020Z 16011KT 060V190 CAVOK 04/M06 Q0990 RMK WIND 300FT 13022G32KT
cycle: 20

Station Type Date Time Source
ENST TAF UTC NOAA

Error!

Example: see airport list